Terminal Aerodrome Forecast
Issued by NWS

Home | Current Version | Previous Version | Text Only | Print | Product List | Glossary On
Versions: 1 2 3 4 5 6 7 8 9 10 11 12 13 14 15 16 17 18 19 20 21 22 23 24 25 26 27 28 29 30 31 32 33 34 35 36 37 38 39
000
FTUS41 KBOX 231723
TAFHYA
TAF
KHYA 231723Z 2318/2418 21015G24KT P6SM SCT050
     FM240300 21013KT 5SM BR BKN050
     FM240600 22008KT 5SM -SHRA BR BKN050
     FM241300 30004KT 3SM -SHRA BR OVC050
     FM241500 35010KT 3SM BR OVC020=

USA.gov is the U.S. government's official web portal to all federal, state and local government web resources and services.